Bookmark and Share
Track history (hours):
 

Martin Challenger

More information available from US FCC via Universal Licensing System and Coast Guard Vessel Documentation Center.

Last reported at 2014-Apr-22 22:07 UTC. Time now 2014-Apr-24 05:51 UTC.
Position N 29°33' W 094°54'.

Length 20 m; draft 2.9 m.

MMSI: 366874920.

NotesDate/timePositionNaut miles runAvg speedWind from/ knotsBaromVisibWave heightAir tempDewpointWater temp
2014-Apr-22 22:07N 29°33' W 094°54'3 5.6
2014-Apr-22 21:33N 29°35' W 094°56'6 5.7
2014-Apr-22 20:33N 29°41' W 094°59'5 4.8
2014-Apr-22 19:33N 29°44' W 095°03'3 3.2
2014-Apr-22 18:34N 29°45' W 095°06'0 0.0
2014-Apr-22 05:04N 29°45' W 095°06'0 0.0
2014-Apr-22 03:24N 29°45' W 095°06'0 0.0
2014-Apr-22 02:26N 29°45' W 095°06'0 0.0
2014-Apr-22 00:33N 29°45' W 095°06'0 0.0
2014-Apr-21 23:33N 29°45' W 095°06'0 0.0
2014-Apr-21 22:29N 29°45' W 095°06'0 0.0
2014-Apr-21 21:32N 29°45' W 095°06'0 0.0
2014-Apr-21 20:33N 29°45' W 095°06'0 0.0
2014-Apr-21 19:32N 29°45' W 095°06'1 1.2
2014-Apr-21 18:27N 29°46' W 095°06'0 0.0
2014-Apr-20 15:28N 29°46' W 095°06'0 0.0
2014-Apr-20 09:13N 29°46' W 095°06'1 0.0
2014-Apr-18 15:33N 29°45' W 095°06'0 0.2
2014-Apr-18 14:33N 29°45' W 095°06'0 0.0
2014-Apr-18 13:33N 29°45' W 095°06'0 0.0
2014-Apr-18 12:33N 29°45' W 095°06'0 0.0
2014-Apr-18 11:13N 29°45' W 095°06'0 0.0
2014-Apr-18 01:12N 29°45' W 095°06'0 0.0
2014-Apr-18 00:32N 29°45' W 095°06'0 0.0
2014-Apr-17 23:33N 29°45' W 095°06'0 0.0
2014-Apr-17 22:33N 29°45' W 095°06'3 1.5
2014-Apr-17 20:23N 29°47' W 095°04'  
2014-Apr-14 21:33N 29°39' W 094°58'6 5.6
2014-Apr-14 20:33N 29°34' W 094°55'  

Dump ship's entire track history

sailing weather and tide predictions

Martin Challenger — WDB2346 — position and weather